x

Kenosha, Wi (knsw3) Weather Station

7:50pm - Sun 19th Apr 2015 All times are CDT. -5 hours from GMT.

  • Wind
    11mph, 14mph gusts
  • Air Temp 47°f
  • Sea Pressure 998mb
  • Kenosha, Wi
  • Kenosha, Wi

More Historic Weather Station data

Upgrade to MSW Pro to gain access to the past 30 days of data for over 8000 Wavebouys and Weather Stations around the globe.

Join Pro

Comparision Forecast

View Surf forecast
   
Sun 04/19 7:50pm 11 14 mph 998mb 47f
7:40pm 11 14 mph 998mb 46f
7:30pm 11 13 mph 998.3mb 45f
7:20pm 10 14 mph 999mb 44f
7:10pm 11 15 mph 999.3mb 43f
7:00pm 13 16 mph 999.3mb 43f
6:50pm 14 16 mph 999.3mb 43f
6:40pm 13 15 mph 999.7mb 44f
6:30pm 14 16 mph 999.7mb 44f
6:20pm 14 16 mph 1000mb 44f
6:10pm 15 17 mph 1000mb 44f
6:00pm 15 17 mph 1000.3mb 44f
5:50pm 15 16 mph 1000.3mb 45f
5:40pm 15 18 mph 1000.7mb 45f
5:30pm 16 20 mph 1000.7mb 46f
5:20pm 14 20 mph 1000.7mb 46f
5:10pm 18 21 mph 1000.7mb 46f
5:00pm 18 22 mph 1000.7mb 46f
4:50pm 20 22 mph 1000.7mb 46f
4:40pm 20 22 mph 1001mb 46f
4:30pm 17 21 mph 1001.4mb 46f
4:20pm 20 22 mph 1001.7mb 46f
4:10pm 18 21 mph 1001.7mb 47f
4:00pm 17 21 mph 1002mb 47f
3:50pm 17 20 mph 1002mb 47f
3:40pm 16 18 mph 1002.4mb 47f
3:30pm 14 16 mph 1002.7mb 47f
3:20pm 14 15 mph 1003mb 47f
3:10pm 13 15 mph 1003.4mb 47f
3:00pm 13 16 mph 1003.4mb 46f
2:50pm 13 16 mph 1003.7mb 46f
2:40pm 14 16 mph 1003.7mb 46f
2:30pm 15 16 mph 1004.1mb 46f
2:20pm 14 17 mph 1004.4mb 47f
2:10pm 13 16 mph 1004.7mb 46f
2:00pm 13 16 mph 1004.7mb 46f
1:50pm 14 16 mph 1005.1mb 46f
1:40pm 14 16 mph 1005.1mb 46f
1:30pm 14 15 mph 1005.8mb 46f
1:20pm 13 15 mph 1005.8mb 45f
1:10pm 14 15 mph 1006.1mb 46f
1:00pm 13 15 mph 1006.8mb 46f
12:50pm 13 16 mph 1006.8mb 46f
12:40pm 13 15 mph 1007.1mb 46f
12:30pm 13 14 mph 1007.1mb 45f
12:20pm 13 14 mph 1007.8mb 46f
12:10pm 13 14 mph 1007.8mb 45f
12:00pm 11 14 mph 1008.1mb 45f
11:50am 13 14 mph 1008.1mb 45f
11:40am 10 11 mph 1008.5mb 45f
11:30am 9 10 mph 1008.8mb 45f
11:20am 10 11 mph 1008.8mb 45f
11:10am 10 11 mph 1009.1mb 45f
11:00am 10
mph
1009.5mb 45f
10:50am 9 10 mph 1009.5mb 45f
10:40am 9
mph
1009.8mb 45f
10:30am 8 9 mph 1009.8mb 45f
10:20am 8 9 mph 1010.2mb 45f
10:10am 7 8 mph 1010.5mb 45f
10:00am 8 9 mph 1010.5mb 44f
9:50am 8
mph
1010.8mb 44f
9:40am 7
mph
1010.8mb 44f
9:30am 7 8 mph 1010.8mb 44f
9:20am 6 8 mph 1010.8mb 44f
9:10am 7 8 mph 1011.2mb 44f
9:00am 7 8 mph 1011.2mb 44f
8:50am 6 8 mph 1011.5mb 44f
8:40am 7 8 mph 1011.5mb 44f
8:30am 7 8 mph 1011.9mb 43f
8:20am 8
mph
1011.9mb 43f
8:10am 7 8 mph 1012.2mb 44f
8:00am 7 9 mph 1012.2mb 43f
7:50am 8 9 mph 1012.2mb 43f
7:40am 8
mph
1012.2mb 43f
7:30am 8 9 mph 1012.5mb 43f
7:20am 8 9 mph 1012.5mb 43f
7:10am 7 9 mph 1012.9mb 44f
7:00am 7 8 mph 1012.9mb 43f
6:50am 7 9 mph 1012.9mb 43f
6:40am 7 9 mph 1012.9mb 43f
6:30am 7 8 mph 1012.9mb 43f
6:20am 6 8 mph 1013.2mb 43f
6:10am 7 8 mph 1013.2mb 43f
6:00am 7
mph
1013.2mb 43f
5:50am 6 8 mph 1013.2mb 43f
5:40am 7 8 mph 1013.2mb 43f
5:30am 6 7 mph 1013.5mb 43f
5:20am 6 8 mph 1013.5mb 43f
5:10am 7 9 mph 1013.5mb 43f
5:00am 7 8 mph 1013.5mb 43f
4:50am 7 9 mph 1013.5mb 43f
4:40am 8 9 mph 1013.5mb 43f
4:30am 8 9 mph 1013.9mb 44f
4:20am 7 10 mph 1013.9mb 44f
4:10am 9 13 mph 1013.9mb 44f
4:00am 10 11 mph 1013.9mb 44f
3:50am 8 11 mph 1014.2mb 44f
3:40am 8 10 mph 1014.2mb 44f
3:30am 8 10 mph 1014.2mb 44f
3:20am 7 10 mph 1014.2mb 44f
3:10am 9 11 mph 1014.6mb 45f
3:00am 10 13 mph 1014.6mb 45f
2:50am 6 9 mph 1014.6mb 45f
2:40am 5 8 mph 1014.9mb 44f
2:30am 6 9 mph 1014.6mb 45f
2:20am 7 10 mph 1014.9mb 45f
2:10am 5 7 mph 1014.9mb 45f
2:00am 5 7 mph 1015.2mb 45f
1:50am 5 6 mph 1015.2mb 45f
1:40am 3 6 mph 1015.2mb 45f
1:30am 3 10 mph 1015.6mb 45f
1:20am 8 14 mph 1015.6mb 46f
1:10am 9 14 mph 1015.6mb 46f
1:00am 11 16 mph 1015.9mb 46f
12:50am 9 13 mph 1015.9mb 46f
12:40am 8 10 mph 1015.9mb 46f
12:30am 8 10 mph 1015.9mb 46f
12:20am 8 13 mph 1015.9mb 46f
12:10am 9 11 mph 1015.9mb 47f
12:00am 7 10 mph 1015.9mb 47f
Sat 04/18 11:50pm 8 13 mph 1015.9mb 47f
11:40pm 10 14 mph 1015.9mb 47f
11:30pm 11 14 mph 1016.3mb 47f
11:20pm 13 15 mph 1016.3mb 47f
11:10pm 10 13 mph 1016.6mb 47f
11:00pm 11 15 mph 1016.6mb 46f
10:50pm 14 15 mph 1016.6mb 46f
10:40pm 11 14 mph 1016.9mb 47f
10:30pm 14 16 mph 1017.3mb 46f
10:20pm 14 16 mph 1017.3mb 46f
10:10pm 14 16 mph 1017.3mb 46f
10:00pm 15 17 mph 1017.6mb 46f
9:50pm 15 22 mph 1017.6mb 46f
9:40pm 16 20 mph 1017.6mb 46f
9:30pm 17 20 mph 1017.6mb 45f
9:20pm 18 22 mph 1017.3mb 44f
9:10pm 21 26 mph 1017.6mb 44f
9:00pm 20 24 mph 1017.3mb 44f
8:50pm 22 25 mph 1017.3mb 43f
8:40pm 21 25 mph 1017.3mb 43f
8:30pm 22 25 mph 1017.3mb 43f
8:20pm 22 25 mph 1017.3mb 43f
8:10pm 23 26 mph 1017.3mb 43f
8:00pm 24 29 mph 1016.9mb 44f
7:50pm 22 26 mph 1016.9mb 44f
7:40pm 24 30 mph 1016.9mb 44f
7:30pm 26 29 mph 1016.6mb 44f
7:20pm 25 31 mph 1016.6mb 44f
7:10pm 25 31 mph 1016.6mb 45f
7:00pm 26 32 mph 1016.9mb 45f
6:50pm 25 29 mph 1016.9mb 45f
6:40pm 24 30 mph 1016.9mb 45f
6:30pm 25 31 mph 1017.3mb 45f
6:20pm 28 30 mph 1017.3mb 45f
6:10pm 26 31 mph 1017.6mb 44f
6:00pm 26 32 mph 1017.6mb 44f
5:50pm 26 32 mph 1017.9mb 44f
5:40pm 26 32 mph 1017.6mb 44f
5:30pm 28 31 mph 1017.6mb 44f
5:20pm 28 32 mph 1017.9mb 44f
5:10pm 26 32 mph 1017.9mb 44f
5:00pm 26 32 mph 1017.9mb 44f
4:50pm 26 30 mph 1017.6mb 44f
4:40pm 25 29 mph 1017.9mb 44f
4:30pm 24 28 mph 1017.9mb 44f
4:20pm 25 28 mph 1017.9mb 44f
4:10pm 25 29 mph 1018.3mb 44f
4:00pm 25 29 mph 1018.3mb 44f
3:50pm 24 26 mph 1018.3mb 44f
3:40pm 23 28 mph 1018.3mb 44f
3:30pm 24 29 mph 1018.3mb 44f
3:20pm 25 29 mph 1018.3mb 44f
3:10pm 23 26 mph 1018.6mb 44f
3:00pm 23 28 mph 1018.6mb 44f
2:50pm 23 28 mph 1019mb 44f
2:40pm 24 26 mph 1019mb 44f
2:30pm 22 26 mph 1019.3mb 44f
2:20pm 23 26 mph 1019.3mb 44f
2:10pm 24 25 mph 1019.3mb 43f
2:00pm 23 24 mph 1019.6mb 44f
1:50pm 21 24 mph 1019.6mb 44f
1:40pm 21 23 mph 1019.6mb 44f
1:30pm 21 23 mph 1019.6mb 44f
1:20pm 21 24 mph 1020mb 44f
1:10pm 22 24 mph 1019.6mb 43f
1:00pm 22 25 mph 1020mb 43f
12:50pm 22 26 mph 1020mb 43f
12:40pm 23 26 mph 1020mb 43f
12:30pm 24 26 mph 1019.6mb 43f
12:20pm 25 28 mph 1020mb 43f
12:10pm 26 30 mph 1020mb 43f
12:00pm 26 31 mph 1020mb 43f
11:50am 28 31 mph 1020mb 43f
11:40am 25 31 mph 1019.6mb 43f
11:30am 26 31 mph 1019.6mb 44f
11:20am 28 31 mph 1019.6mb 44f
11:10am 26 30 mph 1019.6mb 44f
11:00am 28 33 mph 1019.6mb 44f
10:50am 29 33 mph 1019.6mb 44f
10:40am 30 33 mph 1019.6mb 44f
10:30am 26 31 mph 1019.6mb 44f
10:20am 26 32 mph 1019.6mb 44f
10:10am 28 33 mph 1019.3mb 44f
10:00am 28 34 mph 1019.3mb 44f
9:50am 29 34 mph 1019.3mb 44f
9:40am 29 34 mph 1019mb 44f
9:30am 30 34 mph 1019mb 44f
9:20am 31 36 mph 1018.6mb 44f
9:10am 30 37 mph 1018.6mb 44f
9:00am 31 37 mph 1019mb 44f
8:50am 33 36 mph 1018.6mb 45f
8:40am 31 37 mph 1018.6mb 45f
8:30am 34 37 mph 1018.3mb 46f
8:20am 31 37 mph 1018.6mb 46f
8:10am 31 36 mph 1019mb 47f
8:00am 32 37 mph 1018.6mb 47f
7:50am 31 36 mph 1018.6mb 49f
7:40am 30 34 mph 1018.6mb 49f
7:30am 29 37 mph 1018.6mb 50f
7:20am 31 37 mph 1017.9mb 52f
7:10am 34 39 mph 1017.9mb 54f
7:00am 9 10 mph 1017.9mb 53f
6:50am 6 7 mph 1017.6mb 52f
6:40am 5 6 mph 1017.3mb 53f
6:30am 3 6 mph 1017.3mb 53f
6:20am 5 6 mph 1016.9mb 55f
6:10am 5 8 mph 1016.9mb 56f
6:00am 8 9 mph 1016.6mb 58f
5:50am 8 9 mph 1016.6mb 59f
5:40am 8 9 mph 1016.3mb 59f
5:30am 8 10 mph 1016.6mb 59f
5:20am 9 13 mph 1016.6mb 59f
5:10am 8 9 mph 1016.3mb 59f
5:00am 6 7 mph 1016.3mb 59f
4:50am 7 9 mph 1015.9mb 59f
4:40am 5 6 mph 1016.3mb 59f
4:30am 6 10 mph 1015.9mb 59f
4:20am 7 8 mph 1016.3mb 59f
4:10am 6 8 mph 1016.3mb 58f
4:00am 8 14 mph 1016.3mb 59f
3:50am 11 14 mph 1015.9mb 60f
3:40am 11 14 mph 1015.9mb 60f
3:30am 10 13 mph 1015.9mb 60f
3:20am 9 10 mph 1015.9mb 60f
3:10am 8 9 mph 1015.9mb 58f
3:00am 7 8 mph 1015.9mb 58f
2:50am 5 6 mph 1015.6mb 56f
2:40am 5
mph
1015.6mb 54f
2:30am 3 6 mph 1015.6mb 53f
2:20am 5 6 mph 1015.6mb 53f
2:10am 2
mph
1015.9mb 50f
2:00am 2 5 mph 1015.9mb 49f
1:50am 3
mph
1015.9mb 49f
1:40am 3
mph
1015.9mb 50f
1:30am 2 3 mph 1015.9mb 50f
1:20am 2
mph
1015.9mb 50f
1:10am  -  3 mph 1015.9mb 51f
1:00am 2 3 mph 1015.9mb 53f
12:50am 3
mph
1015.6mb 53f
12:40am 2 3 mph 1015.9mb 53f
12:30am 1 2 mph 1015.9mb 52f
12:20am 1 2 mph 1015.9mb 52f
12:10am 2 7 mph 1015.6mb 52f
12:00am 7 8 mph 1015.6mb 52f
Fri 04/17 11:50pm 6 7 mph 1015.9mb 51f
11:40pm 5
mph
1015.9mb 51f
11:30pm 1 2 mph 1015.9mb 50f
11:20pm 2 3 mph 1015.9mb 50f
11:10pm 2 3 mph 1015.9mb 49f
11:00pm 2
mph
1015.9mb 49f
10:50pm 2
mph
1015.9mb 48f
10:40pm 1 2 mph 1016.3mb 48f
10:30pm 2
mph
1016.3mb 48f
10:20pm 1 2 mph 1016.3mb 47f
10:10pm  -  mph 1016.3mb 46f
10:00pm  -  mph 1016.3mb 46f
9:50pm  -  mph 1016.3mb 46f
9:40pm  -  1 mph 1016.3mb 46f
9:30pm  -  2 mph 1016.3mb 46f
9:20pm 2 3 mph 1016.3mb 46f
9:10pm 2 3 mph 1016.3mb 46f
9:00pm 2 3 mph 1016.3mb 46f
8:50pm 2 3 mph 1016.3mb 46f
8:40pm 2 5 mph 1016.3mb 46f
8:30pm 5
mph
1016.3mb 46f
8:20pm 3 7 mph 1016.3mb 46f
8:10pm 7 8 mph 1015.9mb 46f
8:00pm 7 8 mph 1015.9mb 46f
7:50pm 6 7 mph 1015.9mb 46f
7:40pm 3 5 mph 1015.9mb 46f
7:30pm 5 7 mph 1015.9mb 46f
7:20pm 7
mph
1015.9mb 46f
7:10pm 7 8 mph 1015.9mb 47f
7:00pm 8
mph
1015.9mb 47f
6:50pm 7 8 mph 1015.9mb 47f
6:40pm 7 9 mph 1015.9mb 47f
6:30pm 8 9 mph 1015.9mb 48f
6:20pm 7 10 mph 1015.9mb 49f
6:10pm 8 9 mph 1015.9mb 50f
6:00pm 5 6 mph 1015.9mb 50f
5:50pm 5 7 mph 1015.9mb 50f
5:40pm 8 9 mph 1015.9mb 50f
5:30pm 2 3 mph 1015.9mb 52f
5:20pm 3
mph
1016.3mb 56f
5:10pm  -  6 mph 1016.3mb 52f
5:00pm 3 7 mph 1015.9mb 55f
4:50pm 6 9 mph 1015.9mb 53f
4:40pm 9
mph
1015.9mb 51f
4:30pm 3 10 mph 1015.9mb 51f
4:20pm 9 10 mph 1015.9mb 52f
4:10pm 2 5 mph 1015.9mb 51f
4:00pm 5 8 mph 1015.9mb 54f
3:50pm 7 8 mph 1016.3mb 53f
3:40pm 6 10 mph 1016.3mb 54f
3:30pm 2 7 mph 1016.3mb 52f
3:20pm 7 16 mph 1016.3mb 54f
3:10pm 9 10 mph 1016.3mb 51f
3:00pm 5 9 mph 1016.3mb 52f
2:50pm 5 10 mph 1016.3mb 53f
2:40pm 7 10 mph 1016.3mb 51f
2:30pm 8 14 mph 1016.6mb 49f
2:20pm 7 11 mph 1016.6mb 53f
2:10pm 10 14 mph 1016.3mb 56f
2:00pm 15 17 mph 1016.3mb 58f
1:50pm 9 16 mph 1016.6mb 57f
1:40pm 14 17 mph 1016.6mb 58f
1:30pm 14 16 mph 1016.6mb 56f
1:20pm 11 16 mph 1016.9mb 55f
1:10pm 15
mph
1016.9mb 58f
1:00pm 13 14 mph 1016.9mb 55f
12:50pm 14
mph
1017.3mb 57f
12:40pm 11 13 mph 1017.3mb 59f
12:30pm 9 10 mph 1017.3mb 64f
12:20pm 8 10 mph 1017.6mb 66f
12:10pm 10 11 mph 1017.6mb 66f
12:00pm 8 9 mph 1017.6mb 70f
11:50am 8 9 mph 1017.9mb 69f
11:40am 5 6 mph 1017.9mb 71f
11:30am 2 3 mph 1017.9mb 69f
11:20am  -  3 mph 1018.3mb 70f
11:10am 2 5 mph 1018.3mb 71f
11:00am  -  3 mph 1018.3mb 70f
10:50am 2 3 mph 1018.3mb 68f
10:40am  -  2 mph 1018.3mb 68f
10:30am  -  5 mph 1018.6mb 68f
10:20am 2 7 mph 1018.6mb 69f
10:10am 6 8 mph 1018.6mb 68f
10:00am 5 10 mph 1018.6mb 68f
9:50am 7 10 mph 1018.6mb 67f
9:40am 9 13 mph 1018.6mb 66f
9:30am 8 11 mph 1019mb 65f
9:20am 9 15 mph 1019mb 64f
9:10am 13 15 mph 1019mb 64f
9:00am 11 15 mph 1019mb 63f
8:50am 10 14 mph 1019mb 62f
8:40am 11 14 mph 1019mb 60f
8:30am 9 14 mph 1019mb 61f
8:20am 13 15 mph 1019mb 61f
8:10am 13 15 mph 1019mb 59f
8:00am 11 15 mph 1019mb 58f
7:50am 11 14 mph 1018.6mb 58f
7:40am 11 15 mph 1018.6mb 57f
7:30am 11 14 mph 1018.6mb 56f
7:20am 11 13 mph 1018.3mb 56f
7:10am 11 14 mph 1018.3mb 55f
7:00am 10 13 mph 1018.3mb 55f
6:50am 10 11 mph 1018.3mb 55f
6:40am 10 13 mph 1017.9mb 55f
6:30am 9 11 mph 1017.9mb 54f
6:20am 9 11 mph 1017.6mb 54f
6:10am 9 11 mph 1017.9mb 54f
6:00am 10 13 mph 1017.6mb 54f
5:50am 10 11 mph 1017.6mb 54f
5:40am 10 14 mph 1017.6mb 54f
5:30am 10 14 mph 1017.6mb 54f
5:20am 10 14 mph 1017.9mb 53f
5:10am 10 13 mph 1017.9mb 53f
5:00am 10 13 mph 1017.9mb 53f
4:50am 11 16 mph 1018.3mb 54f
4:40am 13 17 mph 1017.9mb 54f
4:30am 14 20 mph 1018.3mb 54f
4:20am 13 18 mph 1018.3mb 54f
4:10am 15 18 mph 1018.3mb 54f
4:00am 14 18 mph 1018.3mb 54f
3:50am 13 15 mph 1018.3mb 53f
3:40am 10 15 mph 1018.3mb 52f
3:30am 9 11 mph 1017.9mb 51f
3:20am 7 8 mph 1017.9mb 51f
3:10am 5 6 mph 1017.9mb 49f
3:00am 3 5 mph 1018.3mb 48f
2:50am 3
mph
1017.6mb 47f
2:40am 3
mph
1017.6mb 47f
2:30am 3 5 mph 1017.9mb 48f
2:20am 3
mph
1017.9mb 47f
2:10am 2
mph
1017.9mb 47f
2:00am  -  2 mph 1017.9mb 47f
1:50am 2 3 mph 1017.9mb 47f
1:40am 3
mph
1018.3mb 47f
1:30am 1 2 mph 1018.3mb 47f
1:20am 3 5 mph 1018.3mb 46f
1:10am 5 6 mph 1018.3mb 46f
1:00am 5 6 mph 1018.6mb 46f
12:50am 5 6 mph 1018.6mb 46f
12:40am 3 7 mph 1018.6mb 47f
12:30am 6 7 mph 1018.6mb 48f
12:20am 6 7 mph 1018.6mb 48f
12:10am 7 8 mph 1018.6mb 48f
12:00am 7 8 mph 1018.6mb 48f
Thu 04/16 11:50pm 7 9 mph 1018.6mb 48f
11:40pm 7 8 mph 1018.6mb 48f
11:30pm 7 9 mph 1018.6mb 48f
11:20pm 7 8 mph 1018.6mb 48f
11:10pm 6 7 mph 1018.3mb 47f
11:00pm 7
mph
1018.6mb 47f
10:50pm 5 6 mph 1018.3mb 48f
10:40pm 6 8 mph 1018.3mb 48f
10:30pm 7 9 mph 1018.3mb 47f
10:20pm 7 8 mph 1018.3mb 47f
10:10pm 5 8 mph 1018.6mb 47f
10:00pm 5 7 mph 1018.6mb 47f
9:50pm 3 7 mph 1018.6mb 47f
9:40pm 6 7 mph 1018.3mb 47f
9:30pm 6 7 mph 1018.3mb 47f
9:20pm 5 8 mph 1018.6mb 47f
9:10pm 6 9 mph 1018.3mb 47f
9:00pm 6 9 mph 1018.3mb 47f
8:50pm 7 10 mph 1018.3mb 47f
8:40pm 8 9 mph 1018.3mb 47f
8:30pm 7 9 mph 1018.3mb 47f
8:20pm 8 9 mph 1017.9mb 47f
8:10pm 7 10 mph 1017.9mb 47f
8:00pm 8 10 mph 1017.9mb 47f
7:50pm 9 10 mph 1017.9mb 47f
7:40pm 9 11 mph 1018.3mb 47f
7:30pm 9 10 mph 1017.9mb 47f
7:20pm 8 10 mph 1017.9mb 47f
7:10pm 9 11 mph 1017.9mb 46f
7:00pm 9 11 mph 1017.9mb 46f
6:50pm 9 11 mph 1017.9mb 46f
6:40pm 7 10 mph 1017.9mb 45f
6:30pm 8 10 mph 1017.6mb 45f
6:20pm 9 10 mph 1017.6mb 44f
6:10pm 9 11 mph 1017.6mb 44f
6:00pm 10 11 mph 1017.6mb 44f
5:50pm 10 11 mph 1017.6mb 43f
5:40pm 10 11 mph 1017.6mb 43f
5:30pm 9 10 mph 1017.6mb 44f
5:20pm 9 10 mph 1017.9mb 44f
5:10pm 9
mph
1017.9mb 45f
5:00pm 6 7 mph 1017.9mb 46f
4:50pm 6
mph
1017.9mb 46f
4:40pm 5 7 mph 1017.6mb 47f
4:30pm 6 7 mph 1017.6mb 47f
4:20pm 6 7 mph 1017.6mb 46f
4:10pm 6 7 mph 1017.6mb 46f
4:00pm 5 7 mph 1017.6mb 46f
3:50pm 6 7 mph 1017.6mb 46f
3:40pm 5 7 mph 1017.6mb 47f
3:30pm 6 8 mph 1017.9mb 46f
3:20pm 6 8 mph 1017.9mb 46f
3:10pm 6 8 mph 1018.3mb 46f
3:00pm 6 8 mph 1018.3mb 46f
2:50pm 7 8 mph 1018.6mb 46f
2:40pm 6
mph
1018.3mb 45f
2:30pm 5 7 mph 1018.3mb 44f
2:20pm 6 8 mph 1018.6mb 44f
2:10pm 7 8 mph 1018.6mb 44f
2:00pm 7 8 mph 1018.6mb 44f
1:50pm 7 8 mph 1018.6mb 43f
1:40pm 6 7 mph 1019mb 43f
1:30pm 5 6 mph 1019.3mb 43f
1:20pm 5 6 mph 1019.3mb 42f
1:10pm 6 7 mph 1019.3mb 42f
1:00pm 6
mph
1019.3mb 42f
12:50pm 5 6 mph 1019.3mb 42f
12:40pm 2 5 mph 1019.6mb 42f
12:30pm 1 3 mph 1019.6mb 42f
12:20pm 2 5 mph 1019.6mb 43f
12:10pm 3 6 mph 1020mb 42f
12:00pm 5 6 mph 1020mb 42f
11:50am 5 6 mph 1020mb 42f
11:40am 5 6 mph 1020.3mb 42f
11:30am 6 7 mph 1020.3mb 42f
11:20am 6 7 mph 1020.3mb 42f
11:10am 5 6 mph 1020.7mb 42f
11:00am 5 7 mph 1020.7mb 42f
10:50am 5 8 mph 1020.7mb 42f
10:40am 5 8 mph 1020.7mb 42f
10:30am 5 7 mph 1020.7mb 42f
10:20am 6 8 mph 1020.7mb 42f
10:10am 5 10 mph 1020.7mb 42f
10:00am 6 9 mph 1020.7mb 42f
9:50am 2 5 mph 1020.7mb 41f
9:40am 5 8 mph 1020.7mb 41f
9:30am 7 11 mph 1020.3mb 41f
9:20am 10 14 mph 1020.3mb 41f
9:10am 11 15 mph 1020.3mb 41f
9:00am 11 15 mph 1020.3mb 41f
8:50am 11 15 mph 1020.3mb 41f
8:40am 13 16 mph 1020.3mb 41f
8:30am 14 17 mph 1020.3mb 41f
8:20am 15 18 mph 1020.3mb 41f
8:10am 16 20 mph 1020.3mb 41f
8:00am 16 21 mph 1020.7mb 41f
7:50am 20 22 mph 1020.7mb 41f
7:40am 18 22 mph 1020.7mb 41f
7:30am 16 18 mph 1020.7mb 40f
7:20am 16 18 mph 1021mb 40f
7:10am 15 17 mph 1020.7mb 41f
7:00am 15 17 mph 1020.7mb 40f
6:50am 15 17 mph 1021mb 40f
6:40am 15 17 mph 1020.7mb 40f
6:30am 16 18 mph 1020.7mb 40f
6:20am 15 17 mph 1020.7mb 40f
6:10am 15 20 mph 1020.7mb 40f
6:00am 16 18 mph 1020.7mb 40f
5:50am 16 20 mph 1021mb 40f
5:40am 16 21 mph 1021mb 40f
5:30am 17 21 mph 1020.7mb 41f
5:20am 17 21 mph 1020.7mb 42f
5:10am 21 26 mph 1020.7mb 42f
5:00am 25 26 mph 1020.3mb 44f
4:50am 18 22 mph 1020.7mb 45f
4:40am 22 25 mph 1021mb 45f
4:30am 22 24 mph 1021mb 46f
4:20am 24 29 mph 1021mb 46f
4:10am 22 26 mph 1020.7mb 46f
4:00am 22 24 mph 1021mb 46f
3:50am 22 25 mph 1021mb 46f
3:40am 23 25 mph 1021mb 46f
3:30am 21 23 mph 1021.3mb 45f
3:20am 20 26 mph 1021mb 45f
3:10am 24 25 mph 1021mb 46f
3:00am 15 18 mph 1021.3mb 45f
2:50am 8 11 mph 1021.7mb 46f
2:40am 8 14 mph 1021.7mb 46f
2:30am 11 16 mph 1021.7mb 47f
2:20am 9 13 mph 1021.7mb 47f
2:10am 8 13 mph 1022mb 47f
2:00am 8 11 mph 1022mb 48f
1:50am 7 10 mph 1022mb 48f
1:40am 7 9 mph 1022mb 47f